createdAt,value
2023-05-22T00:01:06.929Z,18.27
2023-05-22T00:05:59.168Z,20.42
2023-05-22T00:10:49.190Z,19.55
2023-05-22T00:15:41.698Z,21.15
2023-05-22T00:20:38.899Z,19.23
2023-05-22T00:25:29.385Z,20.97
2023-05-22T00:30:21.666Z,23.90
2023-05-22T00:35:15.459Z,21.37
2023-05-22T00:40:06.533Z,23.30
2023-05-22T00:44:56.530Z,22.10
2023-05-22T00:49:49.402Z,23.27
2023-05-22T00:54:42.841Z,20.90
2023-05-22T00:59:34.227Z,24.98
2023-05-22T01:04:24.214Z,23.25
2023-05-22T01:09:14.986Z,21.73
2023-05-22T01:14:17.185Z,23.02
2023-05-22T01:19:22.944Z,19.38
2023-05-22T01:24:42.073Z,23.98
2023-05-22T01:29:48.344Z,20.58
2023-05-22T01:34:43.557Z,20.83
2023-05-22T01:39:34.515Z,18.08
2023-05-22T01:44:28.184Z,18.70
2023-05-22T01:49:21.632Z,19.13
2023-05-22T01:54:22.884Z,20.93
2023-05-22T01:59:21.574Z,23.33
2023-05-22T02:04:13.286Z,21.27
2023-05-22T02:09:06.512Z,20.60
2023-05-22T02:13:59.690Z,20.80
2023-05-22T02:18:49.677Z,22.23
2023-05-22T02:23:39.645Z,20.80
2023-05-22T02:28:30.148Z,19.27
2023-05-22T02:33:24.820Z,20.30
2023-05-22T02:38:14.815Z,23.20
2023-05-22T02:43:04.822Z,22.17
2023-05-22T02:47:57.311Z,19.40
2023-05-22T02:52:50.743Z,18.58
2023-05-22T02:57:44.679Z,19.57
2023-05-22T03:02:36.840Z,22.00
2023-05-22T03:07:27.323Z,24.83
2023-05-22T03:12:20.186Z,23.02
2023-05-22T03:17:11.117Z,22.07
2023-05-22T03:22:01.009Z,21.77
2023-05-22T03:26:52.333Z,24.70
2023-05-22T03:32:06.398Z,24.20
2023-05-22T03:36:58.165Z,22.77
2023-05-22T03:41:48.392Z,24.25
2023-05-22T03:46:38.754Z,23.60
2023-05-22T03:51:31.856Z,28.90
2023-05-22T03:56:21.762Z,24.08
2023-05-22T04:01:13.963Z,24.63
2023-05-22T04:06:04.716Z,31.50
2023-05-22T04:10:57.329Z,30.95
2023-05-22T04:15:47.744Z,36.17
2023-05-22T04:20:40.825Z,30.33
2023-05-22T04:25:31.825Z,31.38
2023-05-22T04:30:25.968Z,33.08
2023-05-22T04:35:18.833Z,31.60
2023-05-22T04:40:11.461Z,41.05
2023-05-22T04:45:04.055Z,42.88
2023-05-22T04:50:00.314Z,37.93
2023-05-22T04:54:52.488Z,36.70
2023-05-22T04:59:42.727Z,37.83
2023-05-22T05:04:34.357Z,40.50
2023-05-22T05:09:27.668Z,36.58
2023-05-22T05:14:18.416Z,35.92
2023-05-22T05:19:08.826Z,39.28
2023-05-22T05:23:59.271Z,35.13
2023-05-22T05:28:52.704Z,37.88
2023-05-22T05:33:43.710Z,36.43
2023-05-22T05:38:38.634Z,32.90
2023-05-22T05:43:29.286Z,35.80
2023-05-22T05:48:27.859Z,38.23
2023-05-22T05:53:18.969Z,31.20
2023-05-22T05:58:15.646Z,33.55
2023-05-22T06:03:22.940Z,34.22
2023-05-22T06:08:23.846Z,32.43
2023-05-22T06:13:14.360Z,34.73
2023-05-22T06:18:05.716Z,32.38
2023-05-22T06:22:56.248Z,33.20
2023-05-22T06:27:49.378Z,29.95
2023-05-22T06:32:40.898Z,35.75
2023-05-22T06:37:33.182Z,35.58
2023-05-22T06:42:27.341Z,35.85
2023-05-22T06:47:40.475Z,31.63
2023-05-22T06:52:32.098Z,38.53
2023-05-22T06:57:25.325Z,28.95
2023-05-22T07:02:17.455Z,34.13
2023-05-22T07:07:26.082Z,33.72
2023-05-22T07:12:16.649Z,32.30
2023-05-22T07:17:08.576Z,32.85
2023-05-22T07:22:04.401Z,32.45
2023-05-22T07:26:59.537Z,32.55
2023-05-22T07:31:50.007Z,38.78
2023-05-22T07:36:41.226Z,35.50
2023-05-22T07:41:31.764Z,36.60
2023-05-22T07:46:25.089Z,39.83
2023-05-22T07:51:23.352Z,40.55
2023-05-22T07:56:17.216Z,38.92
2023-05-22T08:01:09.634Z,38.35
2023-05-22T08:06:02.610Z,37.45
2023-05-22T08:16:00.288Z,39.25
2023-05-22T08:20:54.305Z,37.20
2023-05-22T08:25:47.622Z,37.20
2023-05-22T08:30:38.102Z,33.47
2023-05-22T08:35:28.382Z,33.83
2023-05-22T08:40:19.867Z,32.67
2023-05-22T08:45:16.435Z,30.03
2023-05-22T08:50:07.452Z,33.00
2023-05-22T08:55:01.973Z,27.92
2023-05-22T08:59:53.310Z,28.30
2023-05-22T09:04:46.274Z,28.25
2023-05-22T09:09:39.824Z,28.97
2023-05-22T09:14:31.464Z,28.17
2023-05-22T09:19:23.243Z,24.80
2023-05-22T09:24:16.442Z,24.17
2023-05-22T09:29:07.690Z,21.17
2023-05-22T09:33:58.616Z,22.83
2023-05-22T09:38:48.482Z,24.05
2023-05-22T09:43:41.185Z,22.95
2023-05-22T09:48:30.978Z,20.90
2023-05-22T09:53:22.565Z,18.88
2023-05-22T09:58:16.769Z,22.03
2023-05-22T10:03:12.779Z,19.97
2023-05-22T10:08:08.162Z,21.88
2023-05-22T10:13:01.682Z,21.10
2023-05-22T10:17:53.136Z,19.60
2023-05-22T10:22:46.217Z,19.60
2023-05-22T10:27:36.328Z,16.05
2023-05-22T10:32:36.399Z,24.83
2023-05-22T10:37:50.325Z,23.30
2023-05-22T10:42:41.125Z,30.35
2023-05-22T10:47:30.988Z,32.50
2023-05-22T10:52:22.195Z,32.00
2023-05-22T10:57:20.831Z,35.75
2023-05-22T11:02:23.098Z,32.30
2023-05-22T11:07:15.250Z,31.65
2023-05-22T11:12:28.914Z,35.78
2023-05-22T11:17:21.996Z,35.58
2023-05-22T11:22:13.689Z,36.50
2023-05-22T11:27:05.242Z,27.30
2023-05-22T11:31:58.232Z,30.80
2023-05-22T14:45:55.053Z,11.77
2023-05-22T14:50:45.062Z,11.50
2023-05-22T14:55:34.908Z,9.60
2023-05-22T15:00:24.849Z,10.48
2023-05-22T15:05:17.606Z,12.80
2023-05-22T15:10:08.506Z,9.48
2023-05-22T15:14:58.333Z,10.45
2023-05-22T15:19:49.161Z,8.10
2023-05-22T15:24:44.465Z,8.60
2023-05-22T15:29:34.309Z,9.40
2023-05-22T15:34:24.083Z,8.18
2023-05-22T15:39:13.996Z,8.65
2023-05-22T15:44:06.831Z,6.53
2023-05-22T15:48:57.442Z,7.45
2023-05-22T15:53:47.603Z,6.30
2023-05-22T15:58:37.525Z,7.70
2023-05-22T16:03:29.975Z,4.75
2023-05-22T16:08:20.108Z,3.20
2023-05-22T16:13:10.837Z,3.90
2023-05-22T16:18:01.351Z,4.40
2023-05-22T16:22:53.873Z,2.50
2023-05-22T16:27:43.864Z,4.45
2023-05-22T16:32:33.754Z,4.63
2023-05-22T16:37:24.030Z,3.67
2023-05-22T16:42:18.590Z,2.88
2023-05-22T16:47:08.851Z,2.95
2023-05-22T16:51:58.812Z,3.60
2023-05-22T16:56:48.939Z,3.05
2023-05-22T17:01:41.527Z,2.60
2023-05-22T17:06:32.027Z,4.40
2023-05-22T17:11:21.876Z,3.00
2023-05-22T17:16:12.049Z,2.42
2023-05-22T17:21:04.744Z,3.55
2023-05-22T17:25:55.386Z,3.25
2023-05-22T19:37:08.606Z,11.10
2023-05-22T19:41:58.643Z,13.85
2023-05-22T19:46:48.972Z,11.77
2023-05-22T19:51:39.538Z,10.68
